<?xml version="1.0" encoding="UTF-8" standalone="no" ?><gpx xmlns="http://www.topografix.com/GPX/1/1" xmlns:gpxx="http://www.garmin.com/xmlschemas/GpxExtensions/v3" xmlns:wptx1="http://www.garmin.com/xmlschemas/WaypointExtension/v1" xmlns:gpxtpx="http://www.garmin.com/xmlschemas/TrackPointExtension/v1" creator="GuideVTT.com" version="1.1" xmlns:xsi="http://www.w3.org/2001/XMLSchema-instance" xsi:schemaLocation="http://www.topografix.com/GPX/1/1 http://www.topografix.com/GPX/1/1/gpx.xsd http://www.garmin.com/xmlschemas/GpxExtensions/v3 http://www8.garmin.com/xmlschemas/GpxExtensionsv3.xsd http://www.garmin.com/xmlschemas/WaypointExtension/v1 http://www8.garmin.com/xmlschemas/WaypointExtensionv1.xsd http://www.garmin.com/xmlschemas/TrackPointExtension/v1 http://www.garmin.com/xmlschemas/TrackPointExtensionv1.xsd">
<metadata><link href="http://www.garmin.com"><text>Garmin International</text></link><time>2013-06-22T15:13:50Z</time></metadata>
<trk><name>parcours6.gpx</name><extensions><gpxx:TrackExtension><gpxx:DisplayColor>Cyan</gpxx:DisplayColor></gpxx:TrackExtension></extensions><trkseg>
<trkpt lat="46.21093330" lon="7.32211670"><ele>486</ele><time>2003-05-04T14:23:08Z</time></trkpt>
<trkpt lat="46.21093330" lon="7.32173330"><ele>487</ele><time>2003-05-04T14:23:19Z</time></trkpt>
<trkpt lat="46.21103330" lon="7.32083330"><ele>488</ele><time>2003-05-04T14:23:34Z</time></trkpt>
<trkpt lat="46.21096670" lon="7.32068330"><ele>488</ele><time>2003-05-04T14:23:38Z</time></trkpt>
<trkpt lat="46.21088330" lon="7.32061670"><ele>490</ele><time>2003-05-04T14:23:41Z</time></trkpt>
<trkpt lat="46.21080000" lon="7.32023330"><ele>491</ele><time>2003-05-04T14:23:47Z</time></trkpt>
<trkpt lat="46.21063330" lon="7.31488330"><ele>497</ele><time>2003-05-04T14:24:46Z</time></trkpt>
<trkpt lat="46.21066670" lon="7.31383330"><ele>498</ele><time>2003-05-04T14:25:01Z</time></trkpt>
<trkpt lat="46.21021670" lon="7.31383330"><ele>499</ele><time>2003-05-04T14:25:10Z</time></trkpt>
<trkpt lat="46.20955000" lon="7.31398330"><ele>496</ele><time>2003-05-04T14:25:20Z</time></trkpt>
<trkpt lat="46.20901670" lon="7.31390000"><ele>492</ele><time>2003-05-04T14:25:26Z</time></trkpt>
<trkpt lat="46.20861670" lon="7.31410000"><ele>491</ele><time>2003-05-04T14:25:31Z</time></trkpt>
<trkpt lat="46.20788330" lon="7.31493330"><ele>493</ele><time>2003-05-04T14:25:45Z</time></trkpt>
<trkpt lat="46.20721670" lon="7.31560000"><ele>494</ele><time>2003-05-04T14:26:03Z</time></trkpt>
<trkpt lat="46.20656670" lon="7.31610000"><ele>494</ele><time>2003-05-04T14:26:20Z</time></trkpt>
<trkpt lat="46.20635000" lon="7.31613330"><ele>496</ele><time>2003-05-04T14:26:25Z</time></trkpt>
<trkpt lat="46.20558330" lon="7.31561670"><ele>500</ele><time>2003-05-04T14:26:44Z</time></trkpt>
<trkpt lat="46.20530000" lon="7.31546670"><ele>501</ele><time>2003-05-04T14:26:50Z</time></trkpt>
<trkpt lat="46.20511670" lon="7.31545000"><ele>501</ele><time>2003-05-04T14:26:54Z</time></trkpt>
<trkpt lat="46.20461670" lon="7.31553330"><ele>504</ele><time>2003-05-04T14:27:05Z</time></trkpt>
<trkpt lat="46.20446670" lon="7.31551670"><ele>505</ele><time>2003-05-04T14:27:09Z</time></trkpt>
<trkpt lat="46.20385000" lon="7.31491670"><ele>506</ele><time>2003-05-04T14:27:33Z</time></trkpt>
<trkpt lat="46.20371670" lon="7.31406670"><ele>508</ele><time>2003-05-04T14:27:51Z</time></trkpt>
<trkpt lat="46.20343330" lon="7.31281670"><ele>513</ele><time>2003-05-04T14:28:20Z</time></trkpt>
<trkpt lat="46.20315000" lon="7.31175000"><ele>520</ele><time>2003-05-04T14:28:44Z</time></trkpt>
<trkpt lat="46.20276670" lon="7.31106670"><ele>525</ele><time>2003-05-04T14:29:04Z</time></trkpt>
<trkpt lat="46.20235000" lon="7.31080000"><ele>525</ele><time>2003-05-04T14:29:21Z</time></trkpt>
<trkpt lat="46.20206670" lon="7.30995000"><ele>529</ele><time>2003-05-04T14:29:43Z</time></trkpt>
<trkpt lat="46.20213330" lon="7.30923330"><ele>536</ele><time>2003-05-04T14:29:59Z</time></trkpt>
<trkpt lat="46.20176670" lon="7.30873330"><ele>539</ele><time>2003-05-04T14:30:16Z</time></trkpt>
<trkpt lat="46.20168330" lon="7.30886670"><ele>540</ele><time>2003-05-04T14:30:24Z</time></trkpt>
<trkpt lat="46.20191670" lon="7.30946670"><ele>542</ele><time>2003-05-04T14:30:47Z</time></trkpt>
<trkpt lat="46.20195000" lon="7.31010000"><ele>543</ele><time>2003-05-04T14:31:09Z</time></trkpt>
<trkpt lat="46.20213330" lon="7.31060000"><ele>547</ele><time>2003-05-04T14:31:28Z</time></trkpt>
<trkpt lat="46.20215000" lon="7.31115000"><ele>551</ele><time>2003-05-04T14:31:47Z</time></trkpt>
<trkpt lat="46.20256670" lon="7.31253330"><ele>562</ele><time>2003-05-04T14:32:40Z</time></trkpt>
<trkpt lat="46.20223330" lon="7.31233330"><ele>566</ele><time>2003-05-04T14:32:56Z</time></trkpt>
<trkpt lat="46.20178330" lon="7.31145000"><ele>575</ele><time>2003-05-04T14:33:37Z</time></trkpt>
<trkpt lat="46.20156670" lon="7.31018330"><ele>583</ele><time>2003-05-04T14:34:31Z</time></trkpt>
<trkpt lat="46.20146670" lon="7.30986670"><ele>586</ele><time>2003-05-04T14:34:43Z</time></trkpt>
<trkpt lat="46.20138330" lon="7.31003330"><ele>586</ele><time>2003-05-04T14:34:52Z</time></trkpt>
<trkpt lat="46.20143330" lon="7.31065000"><ele>588</ele><time>2003-05-04T14:35:12Z</time></trkpt>
<trkpt lat="46.20141670" lon="7.31128330"><ele>591</ele><time>2003-05-04T14:35:34Z</time></trkpt>
<trkpt lat="46.20146670" lon="7.31188330"><ele>593</ele><time>2003-05-04T14:35:55Z</time></trkpt>
<trkpt lat="46.20170000" lon="7.31308330"><ele>600</ele><time>2003-05-04T14:36:44Z</time></trkpt>
<trkpt lat="46.20188330" lon="7.31358330"><ele>603</ele><time>2003-05-04T14:37:06Z</time></trkpt>
<trkpt lat="46.20205000" lon="7.31431670"><ele>605</ele><time>2003-05-04T14:37:35Z</time></trkpt>
<trkpt lat="46.20223330" lon="7.31485000"><ele>606</ele><time>2003-05-04T14:37:59Z</time></trkpt>
<trkpt lat="46.20245000" lon="7.31528330"><ele>610</ele><time>2003-05-04T14:38:20Z</time></trkpt>
<trkpt lat="46.20298330" lon="7.31573330"><ele>624</ele><time>2003-05-04T14:38:56Z</time></trkpt>
<trkpt lat="46.20310000" lon="7.31605000"><ele>628</ele><time>2003-05-04T14:39:14Z</time></trkpt>
<trkpt lat="46.20311670" lon="7.31620000"><ele>630</ele><time>2003-05-04T14:39:25Z</time></trkpt>
<trkpt lat="46.20306670" lon="7.31625000"><ele>630</ele><time>2003-05-04T14:39:32Z</time></trkpt>
<trkpt lat="46.20313330" lon="7.31625000"><ele>630</ele><time>2003-05-04T14:39:37Z</time></trkpt>
<trkpt lat="46.20301670" lon="7.31630000"><ele>633</ele><time>2003-05-04T14:40:00Z</time></trkpt>
<trkpt lat="46.20280000" lon="7.31628330"><ele>635</ele><time>2003-05-04T14:40:37Z</time></trkpt>
<trkpt lat="46.20256670" lon="7.31636670"><ele>637</ele><time>2003-05-04T14:40:55Z</time></trkpt>
<trkpt lat="46.20230000" lon="7.31633330"><ele>641</ele><time>2003-05-04T14:41:12Z</time></trkpt>
<trkpt lat="46.20221670" lon="7.31566670"><ele>650</ele><time>2003-05-04T14:41:43Z</time></trkpt>
<trkpt lat="46.20183330" lon="7.31495000"><ele>657</ele><time>2003-05-04T14:42:19Z</time></trkpt>
<trkpt lat="46.20168330" lon="7.31448330"><ele>661</ele><time>2003-05-04T14:42:40Z</time></trkpt>
<trkpt lat="46.20160000" lon="7.31398330"><ele>664</ele><time>2003-05-04T14:43:01Z</time></trkpt>
<trkpt lat="46.20130000" lon="7.31356670"><ele>668</ele><time>2003-05-04T14:43:23Z</time></trkpt>
<trkpt lat="46.20101670" lon="7.31343330"><ele>670</ele><time>2003-05-04T14:43:41Z</time></trkpt>
<trkpt lat="46.20075000" lon="7.31345000"><ele>673</ele><time>2003-05-04T14:43:57Z</time></trkpt>
<trkpt lat="46.20085000" lon="7.31376670"><ele>674</ele><time>2003-05-04T14:44:10Z</time></trkpt>
<trkpt lat="46.20118330" lon="7.31471670"><ele>674</ele><time>2003-05-04T14:44:34Z</time></trkpt>
<trkpt lat="46.20115000" lon="7.31493330"><ele>674</ele><time>2003-05-04T14:44:55Z</time></trkpt>
<trkpt lat="46.20095000" lon="7.31538330"><ele>676</ele><time>2003-05-04T14:45:24Z</time></trkpt>
<trkpt lat="46.20090000" lon="7.31583330"><ele>680</ele><time>2003-05-04T14:45:41Z</time></trkpt>
<trkpt lat="46.20078330" lon="7.31610000"><ele>682</ele><time>2003-05-04T14:45:56Z</time></trkpt>
<trkpt lat="46.20073330" lon="7.31581670"><ele>683</ele><time>2003-05-04T14:46:08Z</time></trkpt>
<trkpt lat="46.20080000" lon="7.31533330"><ele>686</ele><time>2003-05-04T14:46:26Z</time></trkpt>
<trkpt lat="46.20080000" lon="7.31483330"><ele>691</ele><time>2003-05-04T14:46:46Z</time></trkpt>
<trkpt lat="46.20015000" lon="7.31413330"><ele>697</ele><time>2003-05-04T14:47:22Z</time></trkpt>
<trkpt lat="46.19998330" lon="7.31390000"><ele>698</ele><time>2003-05-04T14:47:33Z</time></trkpt>
<trkpt lat="46.19995000" lon="7.31416670"><ele>699</ele><time>2003-05-04T14:47:43Z</time></trkpt>
<trkpt lat="46.20013330" lon="7.31461670"><ele>702</ele><time>2003-05-04T14:48:03Z</time></trkpt>
<trkpt lat="46.20020000" lon="7.31495000"><ele>704</ele><time>2003-05-04T14:48:20Z</time></trkpt>
<trkpt lat="46.20006670" lon="7.31530000"><ele>708</ele><time>2003-05-04T14:48:37Z</time></trkpt>
<trkpt lat="46.19981670" lon="7.31538330"><ele>711</ele><time>2003-05-04T14:48:54Z</time></trkpt>
<trkpt lat="46.19963330" lon="7.31521670"><ele>715</ele><time>2003-05-04T14:49:08Z</time></trkpt>
<trkpt lat="46.19946670" lon="7.31471670"><ele>718</ele><time>2003-05-04T14:49:34Z</time></trkpt>
<trkpt lat="46.19945000" lon="7.31425000"><ele>723</ele><time>2003-05-04T14:49:54Z</time></trkpt>
<trkpt lat="46.19936670" lon="7.31371670"><ele>731</ele><time>2003-05-04T14:50:16Z</time></trkpt>
<trkpt lat="46.19931670" lon="7.31276670"><ele>736</ele><time>2003-05-04T14:50:56Z</time></trkpt>
<trkpt lat="46.19938330" lon="7.31200000"><ele>742</ele><time>2003-05-04T14:51:29Z</time></trkpt>
<trkpt lat="46.19938330" lon="7.31106670"><ele>747</ele><time>2003-05-04T14:52:09Z</time></trkpt>
<trkpt lat="46.19946670" lon="7.30995000"><ele>752</ele><time>2003-05-04T14:52:51Z</time></trkpt>
<trkpt lat="46.19943330" lon="7.30988330"><ele>752</ele><time>2003-05-04T14:52:54Z</time></trkpt>
<trkpt lat="46.19933330" lon="7.30986670"><ele>753</ele><time>2003-05-04T14:52:59Z</time></trkpt>
<trkpt lat="46.19926670" lon="7.30991670"><ele>753</ele><time>2003-05-04T14:53:03Z</time></trkpt>
<trkpt lat="46.19918330" lon="7.31096670"><ele>758</ele><time>2003-05-04T14:53:41Z</time></trkpt>
<trkpt lat="46.19900000" lon="7.31136670"><ele>761</ele><time>2003-05-04T14:53:59Z</time></trkpt>
<trkpt lat="46.19876670" lon="7.31238330"><ele>766</ele><time>2003-05-04T14:54:37Z</time></trkpt>
<trkpt lat="46.19868330" lon="7.31296670"><ele>765</ele><time>2003-05-04T14:54:58Z</time></trkpt>
<trkpt lat="46.19865000" lon="7.31361670"><ele>767</ele><time>2003-05-04T14:55:24Z</time></trkpt>
<trkpt lat="46.19870000" lon="7.31381670"><ele>770</ele><time>2003-05-04T14:55:46Z</time></trkpt>
<trkpt lat="46.19865000" lon="7.31401670"><ele>772</ele><time>2003-05-04T14:56:05Z</time></trkpt>
<trkpt lat="46.19851670" lon="7.31411670"><ele>774</ele><time>2003-05-04T14:56:32Z</time></trkpt>
<trkpt lat="46.19833330" lon="7.31413330"><ele>780</ele><time>2003-05-04T14:56:56Z</time></trkpt>
<trkpt lat="46.19816670" lon="7.31433330"><ele>788</ele><time>2003-05-04T14:57:16Z</time></trkpt>
<trkpt lat="46.19806670" lon="7.31440000"><ele>793</ele><time>2003-05-04T14:57:33Z</time></trkpt>
<trkpt lat="46.19780000" lon="7.31491670"><ele>806</ele><time>2003-05-04T14:58:15Z</time></trkpt>
<trkpt lat="46.19766670" lon="7.31510000"><ele>809</ele><time>2003-05-04T14:58:33Z</time></trkpt>
<trkpt lat="46.19765000" lon="7.31510000"><ele>810</ele><time>2003-05-04T14:58:37Z</time></trkpt>
<trkpt lat="46.19761670" lon="7.31518330"><ele>811</ele><time>2003-05-04T14:58:43Z</time></trkpt>
<trkpt lat="46.19746670" lon="7.31533330"><ele>816</ele><time>2003-05-04T14:59:15Z</time></trkpt>
<trkpt lat="46.19716670" lon="7.31523330"><ele>822</ele><time>2003-05-04T15:00:00Z</time></trkpt>
<trkpt lat="46.19693330" lon="7.31523330"><ele>823</ele><time>2003-05-04T15:00:16Z</time></trkpt>
<trkpt lat="46.19663330" lon="7.31513330"><ele>826</ele><time>2003-05-04T15:00:59Z</time></trkpt>
<trkpt lat="46.19648330" lon="7.31513330"><ele>829</ele><time>2003-05-04T15:01:17Z</time></trkpt>
<trkpt lat="46.19638330" lon="7.31523330"><ele>834</ele><time>2003-05-04T15:01:37Z</time></trkpt>
<trkpt lat="46.19635000" lon="7.31518330"><ele>835</ele><time>2003-05-04T15:01:40Z</time></trkpt>
<trkpt lat="46.19641670" lon="7.31491670"><ele>840</ele><time>2003-05-04T15:02:00Z</time></trkpt>
<trkpt lat="46.19653330" lon="7.31476670"><ele>840</ele><time>2003-05-04T15:02:18Z</time></trkpt>
<trkpt lat="46.19656670" lon="7.31463330"><ele>845</ele><time>2003-05-04T15:02:36Z</time></trkpt>
<trkpt lat="46.19626670" lon="7.31446670"><ele>851</ele><time>2003-05-04T15:03:21Z</time></trkpt>
<trkpt lat="46.19618330" lon="7.31435000"><ele>858</ele><time>2003-05-04T15:03:39Z</time></trkpt>
<trkpt lat="46.19608330" lon="7.31438330"><ele>861</ele><time>2003-05-04T15:03:52Z</time></trkpt>
<trkpt lat="46.19580000" lon="7.31428330"><ele>868</ele><time>2003-05-04T15:04:30Z</time></trkpt>
<trkpt lat="46.19543330" lon="7.31405000"><ele>875</ele><time>2003-05-04T15:05:22Z</time></trkpt>
<trkpt lat="46.19528330" lon="7.31401670"><ele>879</ele><time>2003-05-04T15:05:41Z</time></trkpt>
<trkpt lat="46.19518330" lon="7.31410000"><ele>882</ele><time>2003-05-04T15:05:56Z</time></trkpt>
<trkpt lat="46.19511670" lon="7.31418330"><ele>883</ele><time>2003-05-04T15:06:04Z</time></trkpt>
<trkpt lat="46.19508330" lon="7.31410000"><ele>885</ele><time>2003-05-04T15:06:16Z</time></trkpt>
<trkpt lat="46.19521670" lon="7.31386670"><ele>885</ele><time>2003-05-04T15:06:34Z</time></trkpt>
<trkpt lat="46.19520000" lon="7.31381670"><ele>885</ele><time>2003-05-04T15:06:37Z</time></trkpt>
<trkpt lat="46.19483330" lon="7.31398330"><ele>891</ele><time>2003-05-04T15:07:10Z</time></trkpt>
<trkpt lat="46.19463330" lon="7.31398330"><ele>892</ele><time>2003-05-04T15:07:28Z</time></trkpt>
<trkpt lat="46.19440000" lon="7.31390000"><ele>894</ele><time>2003-05-04T15:07:49Z</time></trkpt>
<trkpt lat="46.19430000" lon="7.31391670"><ele>895</ele><time>2003-05-04T15:08:00Z</time></trkpt>
<trkpt lat="46.19411670" lon="7.31416670"><ele>899</ele><time>2003-05-04T15:08:25Z</time></trkpt>
<trkpt lat="46.19385000" lon="7.31470000"><ele>910</ele><time>2003-05-04T15:09:08Z</time></trkpt>
<trkpt lat="46.19363330" lon="7.31498330"><ele>913</ele><time>2003-05-04T15:09:42Z</time></trkpt>
<trkpt lat="46.19336670" lon="7.31518330"><ele>920</ele><time>2003-05-04T15:10:16Z</time></trkpt>
<trkpt lat="46.19280000" lon="7.31540000"><ele>934</ele><time>2003-05-04T15:11:22Z</time></trkpt>
<trkpt lat="46.19226670" lon="7.31543330"><ele>942</ele><time>2003-05-04T15:12:06Z</time></trkpt>
<trkpt lat="46.19161670" lon="7.31558330"><ele>947</ele><time>2003-05-04T15:12:49Z</time></trkpt>
<trkpt lat="46.19140000" lon="7.31545000"><ele>951</ele><time>2003-05-04T15:13:09Z</time></trkpt>
<trkpt lat="46.19111670" lon="7.31468330"><ele>962</ele><time>2003-05-04T15:13:56Z</time></trkpt>
<trkpt lat="46.19096670" lon="7.31448330"><ele>964</ele><time>2003-05-04T15:14:15Z</time></trkpt>
<trkpt lat="46.19078330" lon="7.31431670"><ele>971</ele><time>2003-05-04T15:14:39Z</time></trkpt>
<trkpt lat="46.19038330" lon="7.31411670"><ele>975</ele><time>2003-05-04T15:15:12Z</time></trkpt>
<trkpt lat="46.19018330" lon="7.31406670"><ele>977</ele><time>2003-05-04T15:15:36Z</time></trkpt>
<trkpt lat="46.18953330" lon="7.31383330"><ele>991</ele><time>2003-05-04T15:16:38Z</time></trkpt>
<trkpt lat="46.18931670" lon="7.31366670"><ele>994</ele><time>2003-05-04T15:17:05Z</time></trkpt>
<trkpt lat="46.18936670" lon="7.31351670"><ele>994</ele><time>2003-05-04T15:17:10Z</time></trkpt>
<trkpt lat="46.18931670" lon="7.31331670"><ele>997</ele><time>2003-05-04T15:17:41Z</time></trkpt>
<trkpt lat="46.18925000" lon="7.31328330"><ele>1004</ele><time>2003-05-04T15:18:22Z</time></trkpt>
<trkpt lat="46.18938330" lon="7.31326670"><ele>1003</ele><time>2003-05-04T15:18:32Z</time></trkpt>
<trkpt lat="46.18941670" lon="7.31320000"><ele>1003</ele><time>2003-05-04T15:18:38Z</time></trkpt>
<trkpt lat="46.18973330" lon="7.31301670"><ele>1003</ele><time>2003-05-04T15:18:53Z</time></trkpt>
<trkpt lat="46.19041670" lon="7.31193330"><ele>1008</ele><time>2003-05-04T15:19:32Z</time></trkpt>
<trkpt lat="46.19090000" lon="7.31135000"><ele>1011</ele><time>2003-05-04T15:19:58Z</time></trkpt>
<trkpt lat="46.19123330" lon="7.31070000"><ele>1016</ele><time>2003-05-04T15:20:19Z</time></trkpt>
<trkpt lat="46.19145000" lon="7.31000000"><ele>1021</ele><time>2003-05-04T15:20:40Z</time></trkpt>
<trkpt lat="46.19165000" lon="7.30988330"><ele>1021</ele><time>2003-05-04T15:20:50Z</time></trkpt>
<trkpt lat="46.19183330" lon="7.30961670"><ele>1020</ele><time>2003-05-04T15:20:58Z</time></trkpt>
<trkpt lat="46.19221670" lon="7.30928330"><ele>1019</ele><time>2003-05-04T15:21:08Z</time></trkpt>
<trkpt lat="46.19261670" lon="7.30903330"><ele>1016</ele><time>2003-05-04T15:21:15Z</time></trkpt>
<trkpt lat="46.19310000" lon="7.30905000"><ele>1012</ele><time>2003-05-04T15:21:21Z</time></trkpt>
<trkpt lat="46.19363330" lon="7.30890000"><ele>1009</ele><time>2003-05-04T15:21:27Z</time></trkpt>
<trkpt lat="46.19421670" lon="7.30883330"><ele>1004</ele><time>2003-05-04T15:21:33Z</time></trkpt>
<trkpt lat="46.19463330" lon="7.30853330"><ele>1001</ele><time>2003-05-04T15:21:38Z</time></trkpt>
<trkpt lat="46.19480000" lon="7.30816670"><ele>998</ele><time>2003-05-04T15:21:41Z</time></trkpt>
<trkpt lat="46.19491670" lon="7.30760000"><ele>996</ele><time>2003-05-04T15:21:45Z</time></trkpt>
<trkpt lat="46.19493330" lon="7.30711670"><ele>993</ele><time>2003-05-04T15:21:48Z</time></trkpt>
<trkpt lat="46.19528330" lon="7.30626670"><ele>993</ele><time>2003-05-04T15:21:55Z</time></trkpt>
<trkpt lat="46.19550000" lon="7.30598330"><ele>994</ele><time>2003-05-04T15:21:59Z</time></trkpt>
<trkpt lat="46.19556670" lon="7.30565000"><ele>995</ele><time>2003-05-04T15:22:07Z</time></trkpt>
<trkpt lat="46.19543330" lon="7.30543330"><ele>995</ele><time>2003-05-04T15:22:18Z</time></trkpt>
<trkpt lat="46.19543330" lon="7.30551670"><ele>994</ele><time>2003-05-04T15:23:06Z</time></trkpt>
<trkpt lat="46.19548330" lon="7.30558330"><ele>994</ele><time>2003-05-04T15:23:10Z</time></trkpt>
<trkpt lat="46.19551670" lon="7.30550000"><ele>994</ele><time>2003-05-04T15:23:14Z</time></trkpt>
<trkpt lat="46.19545000" lon="7.30493330"><ele>994</ele><time>2003-05-04T15:23:23Z</time></trkpt>
<trkpt lat="46.19496670" lon="7.30386670"><ele>994</ele><time>2003-05-04T15:23:40Z</time></trkpt>
<trkpt lat="46.19456670" lon="7.30313330"><ele>991</ele><time>2003-05-04T15:23:48Z</time></trkpt>
<trkpt lat="46.19443330" lon="7.30208330"><ele>993</ele><time>2003-05-04T15:24:00Z</time></trkpt>
<trkpt lat="46.19411670" lon="7.30151670"><ele>992</ele><time>2003-05-04T15:24:07Z</time></trkpt>
<trkpt lat="46.19403330" lon="7.30115000"><ele>991</ele><time>2003-05-04T15:24:11Z</time></trkpt>
<trkpt lat="46.19400000" lon="7.30080000"><ele>991</ele><time>2003-05-04T15:24:15Z</time></trkpt>
<trkpt lat="46.19381670" lon="7.30045000"><ele>990</ele><time>2003-05-04T15:24:19Z</time></trkpt>
<trkpt lat="46.19365000" lon="7.29985000"><ele>988</ele><time>2003-05-04T15:24:26Z</time></trkpt>
<trkpt lat="46.19370000" lon="7.29835000"><ele>985</ele><time>2003-05-04T15:24:40Z</time></trkpt>
<trkpt lat="46.19356670" lon="7.29706670"><ele>978</ele><time>2003-05-04T15:24:49Z</time></trkpt>
<trkpt lat="46.19361670" lon="7.29640000"><ele>974</ele><time>2003-05-04T15:24:53Z</time></trkpt>
<trkpt lat="46.19348330" lon="7.29461670"><ele>965</ele><time>2003-05-04T15:25:03Z</time></trkpt>
<trkpt lat="46.19305000" lon="7.29360000"><ele>959</ele><time>2003-05-04T15:25:10Z</time></trkpt>
<trkpt lat="46.19281670" lon="7.29291670"><ele>954</ele><time>2003-05-04T15:25:14Z</time></trkpt>
<trkpt lat="46.19265000" lon="7.29195000"><ele>947</ele><time>2003-05-04T15:25:19Z</time></trkpt>
<trkpt lat="46.19253330" lon="7.29070000"><ele>937</ele><time>2003-05-04T15:25:25Z</time></trkpt>
<trkpt lat="46.19240000" lon="7.28965000"><ele>933</ele><time>2003-05-04T15:25:32Z</time></trkpt>
<trkpt lat="46.19230000" lon="7.28943330"><ele>933</ele><time>2003-05-04T15:25:34Z</time></trkpt>
<trkpt lat="46.19215000" lon="7.28896670"><ele>928</ele><time>2003-05-04T15:25:37Z</time></trkpt>
<trkpt lat="46.19198330" lon="7.28710000"><ele>912</ele><time>2003-05-04T15:25:47Z</time></trkpt>
<trkpt lat="46.19148330" lon="7.28581670"><ele>898</ele><time>2003-05-04T15:25:55Z</time></trkpt>
<trkpt lat="46.19138330" lon="7.28528330"><ele>895</ele><time>2003-05-04T15:25:58Z</time></trkpt>
<trkpt lat="46.19100000" lon="7.28433330"><ele>889</ele><time>2003-05-04T15:26:04Z</time></trkpt>
<trkpt lat="46.19088330" lon="7.28318330"><ele>879</ele><time>2003-05-04T15:26:11Z</time></trkpt>
<trkpt lat="46.19021670" lon="7.28091670"><ele>873</ele><time>2003-05-04T15:26:28Z</time></trkpt>
<trkpt lat="46.19018330" lon="7.28070000"><ele>873</ele><time>2003-05-04T15:26:30Z</time></trkpt>
<trkpt lat="46.18965000" lon="7.27935000"><ele>870</ele><time>2003-05-04T15:26:47Z</time></trkpt>
<trkpt lat="46.18908330" lon="7.27773330"><ele>864</ele><time>2003-05-04T15:27:04Z</time></trkpt>
<trkpt lat="46.18811670" lon="7.27565000"><ele>853</ele><time>2003-05-04T15:27:23Z</time></trkpt>
<trkpt lat="46.18798330" lon="7.27493330"><ele>849</ele><time>2003-05-04T15:27:29Z</time></trkpt>
<trkpt lat="46.18773330" lon="7.27426670"><ele>846</ele><time>2003-05-04T15:27:37Z</time></trkpt>
<trkpt lat="46.18730000" lon="7.27281670"><ele>836</ele><time>2003-05-04T15:27:49Z</time></trkpt>
<trkpt lat="46.18691670" lon="7.27133330"><ele>825</ele><time>2003-05-04T15:27:59Z</time></trkpt>
<trkpt lat="46.18660000" lon="7.27030000"><ele>819</ele><time>2003-05-04T15:28:07Z</time></trkpt>
<trkpt lat="46.18653330" lon="7.26995000"><ele>816</ele><time>2003-05-04T15:28:10Z</time></trkpt>
<trkpt lat="46.18655000" lon="7.26930000"><ele>813</ele><time>2003-05-04T15:28:16Z</time></trkpt>
<trkpt lat="46.18676670" lon="7.26920000"><ele>811</ele><time>2003-05-04T15:28:21Z</time></trkpt>
<trkpt lat="46.18685000" lon="7.26946670"><ele>809</ele><time>2003-05-04T15:28:24Z</time></trkpt>
<trkpt lat="46.18723330" lon="7.27015000"><ele>807</ele><time>2003-05-04T15:28:31Z</time></trkpt>
<trkpt lat="46.18776670" lon="7.27090000"><ele>805</ele><time>2003-05-04T15:28:39Z</time></trkpt>
<trkpt lat="46.18820000" lon="7.27156670"><ele>797</ele><time>2003-05-04T15:28:47Z</time></trkpt>
<trkpt lat="46.18855000" lon="7.27243330"><ele>789</ele><time>2003-05-04T15:28:54Z</time></trkpt>
<trkpt lat="46.18870000" lon="7.27263330"><ele>786</ele><time>2003-05-04T15:28:56Z</time></trkpt>
<trkpt lat="46.18903330" lon="7.27353330"><ele>779</ele><time>2003-05-04T15:29:03Z</time></trkpt>
<trkpt lat="46.18921670" lon="7.27378330"><ele>778</ele><time>2003-05-04T15:29:05Z</time></trkpt>
<trkpt lat="46.18961670" lon="7.27423330"><ele>771</ele><time>2003-05-04T15:29:10Z</time></trkpt>
<trkpt lat="46.19058330" lon="7.27601670"><ele>755</ele><time>2003-05-04T15:29:25Z</time></trkpt>
<trkpt lat="46.19068330" lon="7.27651670"><ele>751</ele><time>2003-05-04T15:29:29Z</time></trkpt>
<trkpt lat="46.19095000" lon="7.27688330"><ele>748</ele><time>2003-05-04T15:29:33Z</time></trkpt>
<trkpt lat="46.19133330" lon="7.27755000"><ele>740</ele><time>2003-05-04T15:29:40Z</time></trkpt>
<trkpt lat="46.19158330" lon="7.27773330"><ele>736</ele><time>2003-05-04T15:29:45Z</time></trkpt>
<trkpt lat="46.19185000" lon="7.27805000"><ele>733</ele><time>2003-05-04T15:29:50Z</time></trkpt>
<trkpt lat="46.19220000" lon="7.27945000"><ele>727</ele><time>2003-05-04T15:30:01Z</time></trkpt>
<trkpt lat="46.19271670" lon="7.28028330"><ele>722</ele><time>2003-05-04T15:30:09Z</time></trkpt>
<trkpt lat="46.19288330" lon="7.28066670"><ele>721</ele><time>2003-05-04T15:30:12Z</time></trkpt>
<trkpt lat="46.19358330" lon="7.28173330"><ele>708</ele><time>2003-05-04T15:30:21Z</time></trkpt>
<trkpt lat="46.19456670" lon="7.28303330"><ele>699</ele><time>2003-05-04T15:30:32Z</time></trkpt>
<trkpt lat="46.19653330" lon="7.28691670"><ele>671</ele><time>2003-05-04T15:31:00Z</time></trkpt>
<trkpt lat="46.19678330" lon="7.28745000"><ele>669</ele><time>2003-05-04T15:31:04Z</time></trkpt>
<trkpt lat="46.19690000" lon="7.28791670"><ele>668</ele><time>2003-05-04T15:31:07Z</time></trkpt>
<trkpt lat="46.19716670" lon="7.28848330"><ele>665</ele><time>2003-05-04T15:31:11Z</time></trkpt>
<trkpt lat="46.19731670" lon="7.28871670"><ele>661</ele><time>2003-05-04T15:31:13Z</time></trkpt>
<trkpt lat="46.19755000" lon="7.28948330"><ele>655</ele><time>2003-05-04T15:31:18Z</time></trkpt>
<trkpt lat="46.19753330" lon="7.29068330"><ele>651</ele><time>2003-05-04T15:31:25Z</time></trkpt>
<trkpt lat="46.19775000" lon="7.29135000"><ele>647</ele><time>2003-05-04T15:31:30Z</time></trkpt>
<trkpt lat="46.19811670" lon="7.29188330"><ele>639</ele><time>2003-05-04T15:31:35Z</time></trkpt>
<trkpt lat="46.19831670" lon="7.29240000"><ele>635</ele><time>2003-05-04T15:31:39Z</time></trkpt>
<trkpt lat="46.19876670" lon="7.29498330"><ele>631</ele><time>2003-05-04T15:31:57Z</time></trkpt>
<trkpt lat="46.19930000" lon="7.29658330"><ele>624</ele><time>2003-05-04T15:32:09Z</time></trkpt>
<trkpt lat="46.19953330" lon="7.29708330"><ele>621</ele><time>2003-05-04T15:32:13Z</time></trkpt>
<trkpt lat="46.20000000" lon="7.29943330"><ele>615</ele><time>2003-05-04T15:32:31Z</time></trkpt>
<trkpt lat="46.20056670" lon="7.30118330"><ele>611</ele><time>2003-05-04T15:32:45Z</time></trkpt>
<trkpt lat="46.20065000" lon="7.30158330"><ele>609</ele><time>2003-05-04T15:32:48Z</time></trkpt>
<trkpt lat="46.20065000" lon="7.30211670"><ele>606</ele><time>2003-05-04T15:32:52Z</time></trkpt>
<trkpt lat="46.20086670" lon="7.30275000"><ele>603</ele><time>2003-05-04T15:32:57Z</time></trkpt>
<trkpt lat="46.20123330" lon="7.30345000"><ele>596</ele><time>2003-05-04T15:33:03Z</time></trkpt>
<trkpt lat="46.20131670" lon="7.30403330"><ele>594</ele><time>2003-05-04T15:33:07Z</time></trkpt>
<trkpt lat="46.20116670" lon="7.30560000"><ele>589</ele><time>2003-05-04T15:33:18Z</time></trkpt>
<trkpt lat="46.20125000" lon="7.30615000"><ele>588</ele><time>2003-05-04T15:33:22Z</time></trkpt>
<trkpt lat="46.20135000" lon="7.30656670"><ele>588</ele><time>2003-05-04T15:33:25Z</time></trkpt>
<trkpt lat="46.20163330" lon="7.30716670"><ele>584</ele><time>2003-05-04T15:33:30Z</time></trkpt>
<trkpt lat="46.20180000" lon="7.30841670"><ele>578</ele><time>2003-05-04T15:33:39Z</time></trkpt>
<trkpt lat="46.20213330" lon="7.30893330"><ele>572</ele><time>2003-05-04T15:33:44Z</time></trkpt>
<trkpt lat="46.20235000" lon="7.30958330"><ele>562</ele><time>2003-05-04T15:33:50Z</time></trkpt>
<trkpt lat="46.20236670" lon="7.31021670"><ele>559</ele><time>2003-05-04T15:33:55Z</time></trkpt>
<trkpt lat="46.20258330" lon="7.31095000"><ele>558</ele><time>2003-05-04T15:34:01Z</time></trkpt>
<trkpt lat="46.20301670" lon="7.31133330"><ele>551</ele><time>2003-05-04T15:34:07Z</time></trkpt>
<trkpt lat="46.20305000" lon="7.31143330"><ele>550</ele><time>2003-05-04T15:34:08Z</time></trkpt>
<trkpt lat="46.20370000" lon="7.31330000"><ele>537</ele><time>2003-05-04T15:34:26Z</time></trkpt>
<trkpt lat="46.20430000" lon="7.31531670"><ele>529</ele><time>2003-05-04T15:34:44Z</time></trkpt>
<trkpt lat="46.20483330" lon="7.31555000"><ele>522</ele><time>2003-05-04T15:34:51Z</time></trkpt>
<trkpt lat="46.20523330" lon="7.31546670"><ele>519</ele><time>2003-05-04T15:34:56Z</time></trkpt>
<trkpt lat="46.20555000" lon="7.31558330"><ele>517</ele><time>2003-05-04T15:35:00Z</time></trkpt>
<trkpt lat="46.20648330" lon="7.31618330"><ele>511</ele><time>2003-05-04T15:35:13Z</time></trkpt>
<trkpt lat="46.20676670" lon="7.31610000"><ele>508</ele><time>2003-05-04T15:35:17Z</time></trkpt>
<trkpt lat="46.20796670" lon="7.31500000"><ele>497</ele><time>2003-05-04T15:35:33Z</time></trkpt>
<trkpt lat="46.20873330" lon="7.31411670"><ele>493</ele><time>2003-05-04T15:35:44Z</time></trkpt>
<trkpt lat="46.20911670" lon="7.31401670"><ele>493</ele><time>2003-05-04T15:35:49Z</time></trkpt>
<trkpt lat="46.20956670" lon="7.31406670"><ele>496</ele><time>2003-05-04T15:35:57Z</time></trkpt>
<trkpt lat="46.21068330" lon="7.31388330"><ele>498</ele><time>2003-05-04T15:36:19Z</time></trkpt>
<trkpt lat="46.21066670" lon="7.31440000"><ele>497</ele><time>2003-05-04T15:36:26Z</time></trkpt>
<trkpt lat="46.21068330" lon="7.31628330"><ele>497</ele><time>2003-05-04T15:36:45Z</time></trkpt>
<trkpt lat="46.21078330" lon="7.32040000"><ele>497</ele><time>2003-05-04T15:37:31Z</time></trkpt>
<trkpt lat="46.21088330" lon="7.32143330"><ele>495</ele><time>2003-05-04T15:37:45Z</time></trkpt>
<trkpt lat="46.21083330" lon="7.32240000"><ele>492</ele><time>2003-05-04T15:38:02Z</time></trkpt>
</trkseg></trk></gpx>